.
WxDataArchive / Data Records for 2007-04-24
2007-04-23 April 2007 2007-04-25

Data Records for Tuesday, 24 April 2007

Time	Temp	Chill	HIndex	Humid	Dewpt	 Wind 	HiWind	WindDir	Rain 	Barom 
-----	----	-----	------	-----	-----	------	------	-------	-----	----- 
00:00	57.5	57.5	57.5	80	51.4	0	1	270	0.00	29.972 
00:05	57.5	57.5	57.5	79	51.0	0	1	270	0.00	29.970 
00:10	57.5	57.5	57.5	79	51.0	0	2	338	0.00	29.971 
00:15	57.6	57.6	57.6	79	51.1	0	1	338	0.00	29.975 
00:20	57.6	57.6	57.6	79	51.1	0	3	270	0.00	29.982 
00:25	57.6	57.6	57.6	73	49.0	2	6	0	0.00	29.983 
00:30	57.6	57.6	57.6	71	48.3	1	4	338	0.00	29.987 
00:35	57.6	57.6	57.6	72	48.6	1	5	0	0.00	29.988 
00:40	57.6	57.6	57.6	71	48.3	1	4	90	0.00	29.994 
00:45	57.5	57.5	57.5	70	47.8	1	5	68	0.00	29.997 
00:50	57.5	57.5	57.5	71	48.2	0	2	68	0.00	29.998 
00:55	57.3	57.3	57.3	72	48.3	0	2	68	0.00	30.001 
01:00	57.2	57.2	57.2	71	47.9	1	3	90	0.00	30.003 
01:05	57.0	57.0	57.0	70	47.3	1	5	90	0.00	30.004 
01:10	57.0	57.0	57.0	70	47.3	1	2	22	0.00	30.004 
01:15	56.9	56.9	56.9	69	46.8	1	4	45	0.00	30.005 
01:20	56.7	56.7	56.7	69	46.6	1	4	68	0.00	30.006 
01:25	56.7	56.7	56.7	69	46.6	1	4	90	0.00	30.008 
01:30	56.6	56.6	56.6	69	46.5	1	4	112	0.00	30.009 
01:35	56.6	56.6	56.6	69	46.5	1	4	22	0.00	30.009 
01:40	56.5	56.5	56.5	69	46.5	1	5	90	0.00	30.006 
01:45	56.3	56.3	56.3	69	46.3	0	2	45	0.00	30.005 
01:50	56.2	56.2	56.2	70	46.5	0	2	68	0.00	30.006 
01:55	56.0	56.0	56.0	70	46.4	0	1	68	0.00	30.008 
02:00	55.9	55.9	55.9	70	46.3	0	3	45	0.00	30.009 
02:05	55.7	55.7	55.7	70	46.1	0	3	135	0.00	30.013 
02:10	55.7	55.7	55.7	70	46.1	1	3	90	0.00	30.014 
02:15	55.6	55.6	55.6	70	46.0	0	1	90	0.00	30.014 
02:20	55.6	55.6	55.6	71	46.3	0	4	90	0.00	30.016 
02:25	55.6	55.6	55.6	70	46.0	1	3	90	0.00	30.017 
02:30	55.6	55.6	55.6	71	46.3	0	2	90	0.00	30.019 
02:35	55.4	55.4	55.4	71	46.2	0	2	90	0.00	30.020 
02:40	55.4	55.4	55.4	71	46.2	0	1	90	0.00	30.020 
02:45	55.3	55.3	55.3	72	46.4	0	1	90	0.00	30.021 
02:50	55.1	55.1	55.1	71	45.9	0	2	90	0.00	30.019 
02:55	55.0	55.0	55.0	71	45.8	0	2	90	0.00	30.021 
03:00	54.8	54.8	54.8	71	45.6	0	3	45	0.00	30.019 
03:05	54.7	54.7	54.7	71	45.5	0	2	45	0.00	30.020 
03:10	54.4	54.4	54.4	70	44.8	0	1	45	0.00	30.019 
03:15	54.2	54.2	54.2	70	44.6	0	2	90	0.00	30.019 
03:20	53.9	53.9	53.9	71	44.7	0	0	---	0.00	30.020 
03:25	53.6	53.6	53.6	71	44.4	0	1	90	0.00	30.020 
03:30	53.3	53.3	53.3	71	44.1	0	2	45	0.00	30.020 
03:35	53.2	53.2	53.2	71	44.0	0	1	68	0.00	30.020 
03:40	53.1	53.1	53.1	71	43.9	1	2	68	0.00	30.019 
03:45	52.9	52.9	52.9	71	43.8	0	2	68	0.00	30.019 
03:50	52.8	52.8	52.8	71	43.7	0	1	68	0.00	30.020 
03:55	52.8	52.8	52.8	71	43.7	1	2	68	0.00	30.020 
04:00	52.8	52.8	52.8	71	43.7	1	3	68	0.00	30.020 
04:05	52.6	52.6	52.6	72	43.8	0	2	68	0.00	30.019 
04:10	52.5	52.5	52.5	72	43.7	0	2	68	0.00	30.020 
04:15	52.3	52.3	52.3	73	43.9	0	2	68	0.00	30.021 
04:20	52.2	52.2	52.2	73	43.8	0	1	68	0.00	30.022 
04:25	52.2	52.2	52.2	72	43.4	1	2	68	0.00	30.023 
04:30	52.3	52.3	52.3	71	43.2	1	4	90	0.00	30.023 
04:35	52.6	52.6	52.6	71	43.5	1	4	90	0.00	30.027 
04:40	52.6	52.6	52.6	71	43.5	0	3	90	0.00	30.031 
04:45	52.8	52.8	52.8	71	43.7	1	3	68	0.00	30.033 
04:50	52.8	52.8	52.8	70	43.3	1	5	45	0.00	30.036 
04:55	52.8	52.8	52.8	69	42.9	1	4	45	0.00	30.034 
05:00	52.9	52.9	52.9	69	43.0	1	3	68	0.00	30.039 
05:05	52.9	52.9	52.9	70	43.4	0	1	68	0.00	30.050 
05:10	52.8	52.8	52.8	70	43.3	0	0	---	0.00	30.052 
05:15	52.8	52.8	52.8	71	43.7	0	1	68	0.00	30.053 
05:20	52.8	52.8	52.8	70	43.3	0	1	68	0.00	30.055 
05:25	52.8	52.8	52.8	70	43.3	0	1	68	0.00	30.053 
05:30	52.8	52.8	52.8	69	42.9	1	2	68	0.00	30.054 
05:35	52.8	52.8	52.8	70	43.3	0	2	68	0.00	30.053 
05:40	52.8	52.8	52.8	70	43.3	0	2	68	0.00	30.054 
05:45	52.9	52.9	52.9	69	43.0	1	3	68	0.00	30.055 
05:50	52.9	52.9	52.9	69	43.0	1	3	22	0.00	30.055 
05:55	52.9	52.9	52.9	70	43.4	0	3	90	0.00	30.055 
06:00	52.9	52.9	52.9	70	43.4	1	3	90	0.00	30.058 
06:05	52.9	52.9	52.9	70	43.4	0	2	90	0.00	30.067 
06:10	52.9	52.9	52.9	70	43.4	0	3	90	0.00	30.071 
06:15	52.9	52.9	52.9	69	43.0	1	3	90	0.00	30.073 
06:20	52.9	52.9	52.9	70	43.4	0	2	90	0.00	30.074 
06:25	52.9	52.9	52.9	70	43.4	1	4	45	0.00	30.075 
06:30	52.9	52.9	52.9	70	43.4	0	1	45	0.00	30.083 
06:35	52.9	52.9	52.9	70	43.4	0	3	112	0.00	30.085 
06:40	52.9	52.9	52.9	70	43.4	1	4	22	0.00	30.088 
06:45	52.9	52.9	52.9	70	43.4	1	3	22	0.00	30.089 
06:50	52.9	52.9	52.9	70	43.4	1	4	68	0.00	30.089 
06:55	52.9	52.9	52.9	70	43.4	1	3	112	0.00	30.090 
07:00	53.2	53.2	53.2	69	43.3	1	3	45	0.00	30.090 
07:05	53.5	53.5	53.5	68	43.2	1	4	45	0.00	30.089 
07:10	53.8	53.8	53.8	68	43.5	1	5	68	0.00	30.087 
07:15	54.1	54.1	54.1	67	43.4	2	6	112	0.00	30.089 
07:20	54.5	54.5	54.5	68	44.2	2	6	112	0.00	30.089 
07:25	55.0	55.0	55.0	66	43.9	2	7	112	0.00	30.090 
07:30	55.1	55.1	55.1	65	43.5	3	6	112	0.00	30.091 
07:35	55.3	55.3	55.3	65	43.7	2	6	90	0.00	30.089 
07:40	55.6	55.6	55.6	65	44.0	2	6	112	0.00	30.086 
07:45	55.9	55.9	55.9	63	43.5	3	10	112	0.00	30.087 
07:50	55.9	55.9	55.9	63	43.5	4	7	112	0.00	30.085 
07:55	56.0	56.0	56.0	66	44.8	3	7	112	0.00	30.087 
08:00	56.2	56.2	56.2	63	43.8	2	9	45	0.00	30.087 
08:05	56.5	56.5	56.5	63	44.1	2	6	112	0.00	30.090 
08:10	56.9	56.9	56.9	64	44.8	2	5	90	0.00	30.088 
08:15	56.9	56.9	56.9	63	44.4	4	11	112	0.00	30.089 
08:20	57.2	57.2	57.2	62	44.3	3	7	112	0.00	30.089 
08:25	57.3	57.3	57.3	62	44.4	4	8	112	0.00	30.091 
08:30	57.5	57.5	57.5	63	45.0	2	7	112	0.00	30.092 
08:35	58.0	58.0	58.0	61	44.6	2	6	112	0.00	30.091 
08:40	58.0	58.0	58.0	61	44.6	4	10	112	0.00	30.089 
08:45	58.0	58.0	58.0	62	45.1	3	10	112	0.00	30.090 
08:50	58.3	58.3	58.3	61	44.9	3	6	112	0.00	30.089 
08:55	58.3	58.3	58.3	62	45.3	4	8	112	0.00	30.088 
09:00	58.3	58.3	58.3	62	45.3	4	9	112	0.00	30.083 
09:05	58.9	58.9	58.9	62	45.9	3	9	112	0.00	30.079 
09:10	59.5	59.5	59.5	60	45.6	3	6	90	0.00	30.077 
09:15	59.3	59.3	59.3	61	45.8	3	7	112	0.00	30.079 
09:20	59.6	59.6	59.6	61	46.1	2	9	90	0.00	30.080 
09:25	59.9	59.9	59.9	58	45.1	4	7	112	0.00	30.085 
09:30	59.9	59.9	59.9	59	45.5	3	7	112	0.00	30.087 
09:35	60.4	60.4	60.4	58	45.6	3	5	112	0.00	30.088 
09:40	60.5	60.5	60.5	58	45.6	3	7	112	0.00	30.088 
09:45	60.4	60.4	60.4	59	46.0	3	6	112	0.00	30.087 
09:50	60.9	60.9	60.9	56	45.1	2	7	90	0.00	30.085 
09:55	61.3	61.3	61.3	56	45.5	2	6	90	0.00	30.085 
10:00	61.5	61.5	61.5	56	45.7	2	9	112	0.00	30.080 
10:05	61.3	61.3	61.3	56	45.5	3	9	112	0.00	30.084 
10:10	61.6	61.6	61.6	54	44.8	3	9	90	0.00	30.078 
10:15	62.0	62.0	62.0	53	44.7	3	7	112	0.00	30.080 
10:20	62.4	62.4	62.4	51	44.0	2	6	90	0.00	30.081 
10:25	62.9	62.9	62.9	52	45.0	2	5	112	0.00	30.079 
10:30	63.1	63.1	63.1	53	45.7	2	5	90	0.00	30.081 
10:35	62.7	62.7	62.7	49	43.3	6	10	112	0.00	30.085 
10:40	62.7	62.7	62.7	50	43.8	2	7	90	0.00	30.085 
10:45	63.2	63.2	63.2	46	42.1	4	9	90	0.00	30.083 
10:50	63.4	63.4	63.4	51	45.0	4	11	112	0.00	30.085 
10:55	63.4	63.4	63.4	44	41.1	4	7	90	0.00	30.079 
11:00	63.4	63.4	63.4	50	44.4	4	10	112	0.00	30.077 
11:05	63.9	63.9	63.9	47	43.3	3	7	112	0.00	30.079 
11:10	64.2	64.2	64.2	40	39.4	2	7	90	0.00	30.072 
11:15	64.3	64.3	64.3	44	41.9	4	10	112	0.00	30.067 
11:20	64.3	64.3	64.3	45	42.5	4	8	90	0.00	30.064 
11:25	64.2	64.2	64.2	46	43.0	3	9	112	0.00	30.064 
11:30	64.5	64.5	64.5	43	41.5	3	6	112	0.00	30.065 
11:35	64.3	64.3	64.3	42	40.7	4	10	112	0.00	30.062 
11:40	64.8	64.8	64.8	41	40.5	3	7	112	0.00	30.065 
11:45	64.8	64.8	64.8	45	43.0	3	7	112	0.00	30.069 
11:50	65.3	65.3	65.3	47	44.5	1	6	112	0.00	30.071 
11:55	66.0	66.0	66.0	45	44.0	1	4	135	0.00	30.064 
12:00	65.8	65.8	65.8	40	40.8	4	7	112	0.00	30.064 
12:05	65.8	65.8	65.8	40	40.8	3	8	112	0.00	30.066 
12:10	66.0	66.0	66.0	43	42.9	3	6	112	0.00	30.066 
12:15	66.4	66.4	66.4	41	42.0	1	4	45	0.00	30.065 
12:20	66.6	66.6	66.6	37	39.5	3	10	112	0.00	30.059 
12:25	66.8	66.8	66.8	43	43.6	2	6	90	0.00	30.057 
12:30	67.1	67.1	67.1	39	41.3	2	6	90	0.00	30.055 
12:35	67.6	67.6	67.6	35	39.0	1	4	68	0.00	30.049 
12:40	67.6	67.6	67.6	36	39.7	2	5	90	0.00	30.044 
12:45	67.8	67.8	67.8	40	42.6	3	10	22	0.00	30.046 
12:50	67.8	67.8	67.8	39	41.9	3	7	112	0.00	30.053 
12:55	67.4	67.4	67.4	33	37.3	3	6	112	0.00	30.055 
13:00	67.3	67.3	67.3	35	38.7	3	8	112	0.00	30.053 
13:05	66.9	66.9	66.9	38	40.5	4	9	112	0.00	30.051 
13:10	67.4	67.4	67.4	38	40.9	1	7	112	0.00	30.054 
13:15	68.1	68.1	68.1	34	38.7	1	3	112	0.00	30.046 
13:20	68.3	68.3	68.3	33	38.1	3	9	112	0.00	30.045 
13:25	67.9	67.9	67.9	35	39.2	3	9	112	0.00	30.041 
13:30	68.4	68.4	68.4	33	38.2	1	5	90	0.00	30.040 
13:35	68.8	68.8	68.8	38	42.1	1	6	68	0.00	30.040 
13:40	68.9	68.9	68.9	30	36.2	1	7	112	0.00	30.038 
13:45	69.1	69.1	69.1	36	41.0	1	3	112	0.00	30.035 
13:50	68.9	68.9	68.9	33	38.6	1	4	45	0.00	30.032 
13:55	68.9	68.9	68.9	32	37.8	2	5	45	0.00	30.029 
14:00	68.8	68.8	68.8	31	36.9	2	5	112	0.00	30.027 
14:05	68.8	68.8	68.8	29	35.2	3	5	112	0.00	30.028 
14:10	68.9	68.9	68.9	30	36.2	1	4	68	0.00	30.030 
14:15	69.6	69.6	69.6	32	38.4	1	3	68	0.00	30.025 
14:20	69.8	69.8	69.8	33	39.4	2	6	45	0.00	30.023 
14:25	69.8	69.8	69.8	35	40.9	1	7	112	0.00	30.023 
14:30	69.8	69.8	69.8	32	38.6	2	7	112	0.00	30.020 
14:35	69.8	69.8	69.8	33	39.4	1	4	90	0.00	30.014 
14:40	69.6	69.6	69.6	28	35.0	2	9	112	0.00	30.014 
14:45	69.6	69.6	69.6	29	35.9	2	7	112	0.00	30.015 
14:50	69.9	69.9	69.9	37	42.4	1	5	90	0.00	30.012 
14:55	69.9	69.9	69.9	33	39.5	2	5	22	0.00	30.009 
15:00	69.8	69.8	69.8	32	38.6	1	5	112	0.00	30.005 
15:05	69.9	69.9	69.9	29	36.2	2	7	112	0.00	30.006 
15:10	70.1	70.1	70.1	28	35.5	3	7	112	0.00	30.004 
15:15	70.1	70.1	70.1	31	38.1	2	7	112	0.00	30.002 
15:20	70.1	70.1	70.1	34	40.4	1	3	90	0.00	29.996 
15:25	70.1	70.1	70.1	28	35.5	2	4	112	0.00	29.996 
15:30	70.1	70.1	70.1	33	39.7	1	4	112	0.00	29.993 
15:35	69.8	69.8	69.8	27	34.3	4	9	112	0.00	29.994 
15:40	69.8	69.8	69.8	31	37.8	2	5	45	0.00	29.995 
15:45	69.8	69.8	69.8	31	37.8	2	5	90	0.00	29.996 
15:50	69.8	69.8	69.8	31	37.8	2	5	90	0.00	30.001 
15:55	69.8	69.8	69.8	33	39.4	2	4	90	0.00	29.999 
16:00	69.9	69.9	69.9	27	34.4	0	2	90	0.00	29.998 
16:05	70.3	70.3	70.3	31	38.2	1	5	45	0.00	29.994 
16:10	70.3	70.3	70.3	29	36.5	1	4	68	0.00	29.995 
16:15	70.1	70.1	70.1	27	34.6	1	3	68	0.00	29.997 
16:20	69.9	69.9	69.9	27	34.4	1	5	90	0.00	29.997 
16:25	69.9	69.9	69.9	27	34.4	3	12	112	0.00	29.995 
16:30	69.4	69.4	69.4	28	34.9	2	6	112	0.00	29.995 
16:35	69.4	69.4	69.4	31	37.4	1	5	45	0.00	29.994 
16:40	69.3	69.3	69.3	28	34.8	2	6	112	0.00	29.995 
16:45	69.4	69.4	69.4	31	37.4	1	4	112	0.00	29.993 
16:50	69.8	69.8	69.8	31	37.8	1	7	112	0.00	29.994 
16:55	69.8	69.8	69.8	28	35.2	2	6	112	0.00	29.994 
17:00	69.6	69.6	69.6	28	35.0	2	5	112	0.00	29.994 
17:05	69.1	69.1	69.1	28	34.6	2	6	112	0.00	29.991 
17:10	68.8	68.8	68.8	31	36.9	2	5	90	0.00	29.984 
17:15	68.4	68.4	68.4	30	35.7	4	7	90	0.00	29.990 
17:20	68.4	68.4	68.4	31	36.6	2	4	90	0.00	29.992 
17:25	68.6	68.6	68.6	30	35.9	2	6	112	0.00	29.991 
17:30	68.4	68.4	68.4	30	35.7	1	3	68	0.00	29.993 
17:35	68.3	68.3	68.3	30	35.7	2	4	90	0.00	29.993 
17:40	67.9	67.9	67.9	29	34.5	1	3	112	0.00	29.994 
17:45	67.8	67.8	67.8	31	36.1	1	3	112	0.00	29.989 
17:50	67.6	67.6	67.6	32	36.7	2	5	112	0.00	29.984 
17:55	67.6	67.6	67.6	32	36.7	2	4	112	0.00	29.986 
18:00	67.6	67.6	67.6	32	36.7	1	3	112	0.00	29.982 
18:05	67.6	67.6	67.6	35	39.0	0	2	90	0.00	29.985 
18:10	67.4	67.4	67.4	33	37.3	1	3	112	0.00	29.980 
18:15	67.4	67.4	67.4	32	36.5	2	5	68	0.00	29.979 
18:20	67.3	67.3	67.3	32	36.4	3	5	90	0.00	29.978 
18:25	67.3	67.3	67.3	34	38.0	2	5	90	0.00	29.979 
18:30	67.1	67.1	67.1	31	35.4	1	5	90	0.00	29.982 
18:35	66.9	66.9	66.9	32	36.1	1	4	112	0.00	29.985 
18:40	66.6	66.6	66.6	34	37.3	1	4	112	0.00	29.987 
18:45	66.3	66.3	66.3	33	36.3	1	3	112	0.00	29.982 
18:50	66.1	66.1	66.1	34	36.9	1	3	90	0.00	29.984 
18:55	66.0	66.0	66.0	34	36.8	1	3	90	0.00	29.982 
19:00	65.8	65.8	65.8	34	36.6	1	2	90	0.00	29.982 
19:05	65.5	65.5	65.5	35	37.1	1	3	90	0.00	29.978 
19:10	65.3	65.3	65.3	35	36.9	1	2	90	0.00	29.980 
19:15	65.2	65.2	65.2	35	36.9	1	3	90	0.00	29.982 
19:20	65.0	65.0	65.0	35	36.7	1	2	90	0.00	29.980 
19:25	64.7	64.7	64.7	36	37.1	0	2	90	0.00	29.981 
19:30	64.3	64.3	64.3	38	38.1	0	2	90	0.00	29.980 
19:35	64.0	64.0	64.0	38	37.9	0	2	90	0.00	29.980 
19:40	63.9	63.9	63.9	39	38.5	0	2	90	0.00	29.979 
19:45	63.5	63.5	63.5	40	38.7	0	1	90	0.00	29.981 
19:50	63.1	63.1	63.1	40	38.4	0	0	---	0.00	29.984 
19:55	62.6	62.6	62.6	40	37.9	0	0	---	0.00	29.985 
20:00	62.1	62.1	62.1	41	38.1	0	0	---	0.00	29.983 
20:05	61.8	61.8	61.8	40	37.2	0	2	90	0.00	29.980 
20:10	62.0	62.0	62.0	40	37.4	1	2	90	0.00	29.980 
20:15	62.3	62.3	62.3	40	37.7	1	2	90	0.00	29.979 
20:20	62.4	62.4	62.4	40	37.8	1	3	90	0.00	29.978 
20:25	62.3	62.3	62.3	41	38.3	2	4	90	0.00	29.975 
20:30	62.1	62.1	62.1	41	38.1	2	4	112	0.00	29.971 
20:35	62.1	62.1	62.1	41	38.1	2	4	90	0.00	29.969 
20:40	62.0	62.0	62.0	41	38.0	3	6	112	0.00	29.965 
20:45	61.8	61.8	61.8	42	38.5	2	5	90	0.00	29.964 
20:50	61.6	61.6	61.6	42	38.3	3	11	112	0.00	29.971 
20:55	61.5	61.5	61.5	43	38.8	4	9	112	0.00	29.973 
21:00	61.2	61.2	61.2	44	39.1	5	9	112	0.00	29.977 
21:05	60.9	60.9	60.9	44	38.8	3	7	112	0.00	29.975 
21:10	60.5	60.5	60.5	45	39.1	4	10	112	0.00	29.978 
21:15	60.4	60.4	60.4	46	39.5	4	7	112	0.00	29.979 
21:20	60.2	60.2	60.2	46	39.3	4	13	112	0.00	29.978 
21:25	59.9	59.9	59.9	47	39.6	3	10	90	0.00	29.974 
21:30	59.6	59.6	59.6	47	39.3	4	11	90	0.00	29.967 
21:35	59.3	59.3	59.3	49	40.1	5	13	90	0.00	29.963 
21:40	59.0	59.0	59.0	50	40.4	5	11	90	0.00	29.963 
21:45	58.7	58.7	58.7	51	40.6	3	7	90	0.00	29.964 
21:50	58.3	58.3	58.3	52	40.8	3	6	112	0.00	29.964 
21:55	58.1	58.1	58.1	52	40.6	3	6	90	0.00	29.965 
22:00	58.0	58.0	58.0	53	41.0	3	6	90	0.00	29.964 
22:05	57.8	57.8	57.8	53	40.8	3	6	90	0.00	29.965 
22:10	57.8	57.8	57.8	54	41.3	3	9	90	0.00	29.967 
22:15	57.6	57.6	57.6	54	41.1	3	7	90	0.00	29.961 
22:20	57.5	57.5	57.5	55	41.5	3	7	90	0.00	29.961 
22:25	57.3	57.3	57.3	56	41.7	2	4	90	0.00	29.966 
22:30	57.0	57.0	57.0	57	41.9	2	5	90	0.00	29.970 
22:35	56.9	56.9	56.9	57	41.8	2	5	90	0.00	29.975 
22:40	56.7	56.7	56.7	58	42.1	2	5	112	0.00	29.975 
22:45	56.6	56.6	56.6	58	42.0	2	4	90	0.00	29.978 
22:50	56.5	56.5	56.5	59	42.3	1	5	112	0.00	29.985 
22:55	56.3	56.3	56.3	59	42.2	2	4	112	0.00	29.986 
23:00	56.3	56.3	56.3	60	42.6	2	4	90	0.00	29.989 
23:05	56.2	56.2	56.2	60	42.5	2	6	112	0.00	29.991 
23:10	56.2	56.2	56.2	60	42.5	2	6	112	0.00	29.985 
23:15	56.3	56.3	56.3	60	42.6	2	7	112	0.00	29.986 
23:20	56.3	56.3	56.3	59	42.2	3	10	112	0.00	29.982 
23:25	56.3	56.3	56.3	59	42.2	3	7	112	0.00	29.978 
23:30	56.2	56.2	56.2	59	42.1	3	5	112	0.00	29.977 
23:35	56.2	56.2	56.2	58	41.6	3	6	112	0.00	29.975 
23:40	56.0	56.0	56.0	58	41.4	3	9	112	0.00	29.971 
23:45	56.0	56.0	56.0	57	41.0	4	7	112	0.00	29.968 
23:50	56.0	56.0	56.0	56	40.5	4	9	90	0.00	29.968 
23:55	56.0	56.0	56.0	55	40.1	4	11	112	0.00	29.971 

CoCoRaHS
IN-AL-39
A2 Web Hosting
Creative Commons License
GoDaddy
Look for:

loaded 2017-10-17 00:16:34 • last modified 2010-11-18 10:43:29
Privacy PolicyDisclaimer
• wx.awcolley.com is powered by PmWiki v.2002016 •
• all content (unless otherwise noted) © 2017 A W Colley